createdAt,value
2022-12-19T00:05:13.282Z,1.09
2022-12-19T00:15:14.686Z,1.16
2022-12-19T00:25:16.098Z,1.26
2022-12-19T00:35:17.459Z,1.31
2022-12-19T00:45:18.817Z,1.43
2022-12-19T00:55:20.215Z,1.50
2022-12-19T01:05:21.663Z,1.60
2022-12-19T01:15:23.575Z,1.72
2022-12-19T01:25:24.916Z,1.88
2022-12-19T01:35:27.194Z,1.92
2022-12-19T01:45:34.415Z,2.02
2022-12-19T01:55:39.195Z,2.06
2022-12-19T02:05:40.914Z,2.08
2022-12-19T02:16:09.896Z,2.22
2022-12-19T02:26:30.092Z,2.28
2022-12-19T02:36:41.835Z,2.38
2022-12-19T02:46:47.842Z,2.62
2022-12-19T02:57:07.620Z,2.82
2022-12-19T03:07:44.167Z,2.98
2022-12-19T03:17:45.855Z,3.13
2022-12-19T03:27:50.482Z,3.19
2022-12-19T03:37:53.622Z,3.24
2022-12-19T03:48:01.794Z,3.23
2022-12-19T03:58:10.389Z,3.31
2022-12-19T04:08:13.447Z,3.36
2022-12-19T04:18:18.226Z,3.41
2022-12-19T04:28:30.490Z,3.38
2022-12-19T04:38:32.094Z,3.45
2022-12-19T04:48:36.011Z,3.54
2022-12-19T04:58:37.521Z,3.50
2022-12-19T05:08:41.202Z,3.59
2022-12-19T05:18:43.274Z,3.72
2022-12-19T05:28:44.769Z,3.77
2022-12-19T05:38:46.183Z,3.80
2022-12-19T05:48:47.970Z,3.89
2022-12-19T05:58:50.145Z,3.97
2022-12-19T06:08:55.793Z,4.07
2022-12-19T06:18:57.152Z,4.13
2022-12-19T06:28:58.527Z,4.23
2022-12-19T06:38:59.943Z,4.34
2022-12-19T06:49:02.127Z,4.61
2022-12-19T06:59:04.412Z,4.77
2022-12-19T07:09:06.414Z,4.79
2022-12-19T07:19:09.315Z,4.97
2022-12-19T07:29:13.073Z,4.95
2022-12-19T07:39:14.417Z,5.06
2022-12-19T07:49:19.671Z,5.18
2022-12-19T07:59:29.610Z,5.24
2022-12-19T08:09:32.786Z,5.30
2022-12-19T08:19:34.241Z,5.39
2022-12-19T08:29:35.625Z,5.47
2022-12-19T08:39:37.335Z,5.52
2022-12-19T08:49:38.903Z,5.58
2022-12-19T08:59:40.574Z,5.62
2022-12-19T09:09:44.303Z,5.68
2022-12-19T09:19:45.695Z,5.72
2022-12-19T09:29:49.669Z,5.79
2022-12-19T09:39:51.054Z,5.88
2022-12-19T09:50:02.413Z,5.95
2022-12-19T10:00:23.159Z,6.05
2022-12-19T10:12:38.934Z,6.12
2022-12-19T10:21:09.370Z,6.25
2022-12-19T10:31:40.086Z,6.35
2022-12-19T10:41:44.673Z,6.42
2022-12-19T10:52:04.066Z,6.54
2022-12-19T11:02:26.559Z,6.64
2022-12-19T11:16:30.404Z,6.73
2022-12-19T11:29:44.436Z,6.88
2022-12-19T11:33:19.187Z,6.88
2022-12-19T11:43:44.306Z,6.95
2022-12-19T11:54:06.234Z,6.99
2022-12-19T12:04:13.700Z,7.08
2022-12-19T12:26:31.424Z,7.12
2022-12-19T12:32:06.523Z,7.26
2022-12-19T12:45:52.489Z,7.40
2022-12-19T12:56:00.702Z,7.50
2022-12-19T13:06:05.078Z,7.63
2022-12-19T13:16:44.308Z,7.75
2022-12-19T13:26:49.524Z,7.74
2022-12-19T13:39:52.070Z,7.88
2022-12-19T13:47:24.618Z,7.96
2022-12-19T13:57:28.908Z,8.00
2022-12-19T14:07:40.008Z,7.95
2022-12-19T14:17:48.314Z,7.89
2022-12-19T14:28:20.708Z,7.82
2022-12-19T14:39:23.614Z,7.76
2022-12-19T14:53:52.476Z,7.76
2022-12-19T14:59:35.352Z,7.74
2022-12-19T15:11:05.357Z,7.74
2022-12-19T15:20:24.806Z,7.75
2022-12-19T15:30:29.547Z,7.82
2022-12-19T15:40:31.149Z,7.91
2022-12-19T15:50:32.526Z,7.87
2022-12-19T16:00:36.112Z,7.95
2022-12-19T16:10:37.625Z,7.98
2022-12-19T16:20:40.297Z,8.07
2022-12-19T16:30:44.285Z,8.16
2022-12-19T16:40:46.360Z,8.09
2022-12-19T16:50:48.441Z,8.14
2022-12-19T17:00:52.419Z,8.11
2022-12-19T17:10:54.537Z,8.07
2022-12-19T17:20:56.049Z,8.01
2022-12-19T17:31:06.243Z,8.05
2022-12-19T17:41:16.533Z,8.16
2022-12-19T17:51:21.379Z,8.11
2022-12-19T18:01:24.266Z,8.10
2022-12-19T18:11:27.044Z,8.19
2022-12-19T18:21:28.438Z,8.31
2022-12-19T18:31:30.268Z,8.34
2022-12-19T18:41:31.953Z,8.46
2022-12-19T18:51:33.310Z,8.48
2022-12-19T19:01:39.405Z,8.48
2022-12-19T19:11:40.989Z,8.57
2022-12-19T19:21:42.568Z,8.59
2022-12-19T19:31:47.183Z,8.62
2022-12-19T19:41:48.752Z,8.74
2022-12-19T19:51:50.595Z,8.79
2022-12-19T20:01:54.258Z,8.84
2022-12-19T20:11:56.784Z,9.02
2022-12-19T20:22:00.133Z,9.09
2022-12-19T20:32:01.527Z,9.15
2022-12-19T20:42:02.885Z,9.13
2022-12-19T20:52:04.366Z,9.16
2022-12-19T21:02:05.842Z,9.28
2022-12-19T21:12:07.343Z,9.34
2022-12-19T21:22:08.721Z,9.37
2022-12-19T21:32:14.982Z,9.42
2022-12-19T21:42:20.011Z,9.50
2022-12-19T21:52:21.382Z,9.60
2022-12-19T22:02:22.939Z,9.55
2022-12-19T22:12:24.360Z,9.53
2022-12-19T22:22:27.151Z,9.54
2022-12-19T22:32:29.677Z,9.46
2022-12-19T22:42:31.070Z,9.53
2022-12-19T22:52:32.420Z,9.60
2022-12-19T23:02:33.942Z,9.68
2022-12-19T23:12:35.446Z,9.77
2022-12-19T23:22:36.882Z,9.91
2022-12-19T23:32:38.495Z,9.88
2022-12-19T23:42:39.835Z,9.98
2022-12-19T23:52:41.881Z,9.88
